createdAt,value
2019-01-04T05:14:41.107Z,2.60
2019-01-04T05:17:09.573Z,2.23
2019-01-04T05:19:36.708Z,2.37
2019-01-04T05:22:04.873Z,2.33
2019-01-04T05:24:32.014Z,1.67
2019-01-04T05:26:59.129Z,2.10
2019-01-04T18:33:04.592Z,32.63
2019-01-04T18:35:32.293Z,30.47
2019-01-04T18:37:59.959Z,23.43
2019-01-04T18:40:27.707Z,27.67
2019-01-04T18:42:55.994Z,26.07
2019-01-04T18:45:23.619Z,25.57
2019-01-04T18:47:51.392Z,22.80
2019-01-04T18:50:21.781Z,22.90
2019-01-04T18:52:49.613Z,15.63
2019-01-04T18:55:17.276Z,15.63
2019-01-04T18:57:45.261Z,12.83
2019-01-04T19:00:13.195Z,13.13
2019-01-04T19:02:41.771Z,18.40
2019-01-04T19:05:09.483Z,10.43
2019-01-04T19:07:37.077Z,15.77
2019-01-04T19:10:06.312Z,11.73
2019-01-04T19:12:33.766Z,11.17
2019-01-04T19:15:01.514Z,12.10
2019-01-04T19:17:29.228Z,16.60
2019-01-04T19:19:56.884Z,16.43
2019-01-04T19:22:24.995Z,13.60
2019-01-04T19:24:53.144Z,18.37
2019-01-04T19:27:20.948Z,12.43
2019-01-04T19:29:48.463Z,13.13
2019-01-04T19:32:16.840Z,10.27
2019-01-04T19:34:44.617Z,14.83
2019-01-04T19:37:12.249Z,11.30
2019-01-04T19:39:39.862Z,10.07
2019-01-04T19:42:07.742Z,14.03
2019-01-04T19:44:36.875Z,16.63
2019-01-04T19:47:04.743Z,18.93
2019-01-04T19:49:32.513Z,8.60
2019-01-04T19:52:00.550Z,8.47
2019-01-04T19:54:28.097Z,8.57
2019-01-04T19:56:55.901Z,8.37
2019-01-04T19:59:24.208Z,9.40
2019-01-04T20:01:51.757Z,11.17
2019-01-04T20:04:27.431Z,13.80
2019-01-04T20:07:54.047Z,11.97
2019-01-04T20:11:46.671Z,10.60
2019-01-04T20:15:29.882Z,9.03
2019-01-04T20:18:23.585Z,10.93
2019-01-04T20:21:09.868Z,10.90
2019-01-04T20:24:09.155Z,13.07
2019-01-04T20:27:14.245Z,13.47
2019-01-04T20:30:01.496Z,16.77
2019-01-04T20:33:01.005Z,13.43
2019-01-04T20:36:01.180Z,13.67
2019-01-04T20:38:46.979Z,11.90
2019-01-04T20:41:40.210Z,11.10
2019-01-04T20:44:39.747Z,10.93
2019-01-04T20:47:38.935Z,10.53
2019-01-04T20:50:28.849Z,14.33
2019-01-04T20:53:21.869Z,11.97
2019-01-04T20:56:07.835Z,7.93
2019-01-04T20:58:54.857Z,9.93
2019-01-04T21:01:50.926Z,10.10
2019-01-04T21:04:35.547Z,9.77
2019-01-04T21:07:22.525Z,8.73
2019-01-04T21:10:15.678Z,11.27
2019-01-04T21:13:01.743Z,11.67
2019-01-04T21:15:57.483Z,11.60
2019-01-04T21:18:48.568Z,13.73
2019-01-04T21:21:29.583Z,12.60
2019-01-04T21:24:15.610Z,15.03
2019-01-04T21:27:01.249Z,15.50
2019-01-04T21:29:46.892Z,17.77
2019-01-04T21:32:31.813Z,19.60
2019-01-04T21:35:17.782Z,22.57
2019-01-04T21:38:04.694Z,26.30
2019-01-04T21:41:00.170Z,24.37
2019-01-04T21:43:53.255Z,22.80
2019-01-04T21:46:55.179Z,24.43
2019-01-04T21:49:47.946Z,23.53
2019-01-04T21:52:40.808Z,23.87
2019-01-04T21:55:26.381Z,21.67
2019-01-04T21:58:16.061Z,23.00
2019-01-04T22:00:58.255Z,21.70
2019-01-04T22:03:44.083Z,23.70
2019-01-04T22:06:29.780Z,23.97
2019-01-04T22:09:25.833Z,25.03
2019-01-04T22:12:07.315Z,22.90
2019-01-04T22:14:52.603Z,24.03
2019-01-04T22:17:52.223Z,19.37
2019-01-04T22:20:37.788Z,20.10
2019-01-04T22:23:23.558Z,22.60
2019-01-04T22:26:16.287Z,23.43
2019-01-04T22:29:03.293Z,23.83
2019-01-04T22:32:00.580Z,22.77
2019-01-04T22:34:44.522Z,26.87
2019-01-04T22:37:31.659Z,22.07
2019-01-04T22:40:21.556Z,28.97
2019-01-04T22:43:11.553Z,23.00
2019-01-04T22:46:13.641Z,20.33
2019-01-04T22:49:12.656Z,24.97
2019-01-04T22:52:05.983Z,22.13
2019-01-04T22:54:52.980Z,23.70
2019-01-04T22:57:39.997Z,25.03
2019-01-04T23:00:43.716Z,21.33
2019-01-04T23:03:36.704Z,26.83
2019-01-04T23:06:22.384Z,24.00
2019-01-04T23:09:15.300Z,22.20
2019-01-04T23:12:00.784Z,23.97
2019-01-04T23:14:56.625Z,22.20
2019-01-04T23:17:47.182Z,22.23
2019-01-04T23:20:43.487Z,24.30
2019-01-04T23:23:22.535Z,24.37
2019-01-04T23:26:08.586Z,25.07
2019-01-04T23:28:58.276Z,25.17
2019-01-04T23:31:48.322Z,25.43
2019-01-04T23:34:44.091Z,27.37
2019-01-04T23:37:29.823Z,23.70
2019-01-04T23:40:15.471Z,23.43
2019-01-04T23:43:01.081Z,21.57
2019-01-04T23:46:01.649Z,23.10
2019-01-04T23:49:06.951Z,22.17
2019-01-04T23:51:46.852Z,24.60
2019-01-04T23:54:33.990Z,24.60
2019-01-04T23:57:33.386Z,23.93
